sim
Sign-in with your pilot id or email,
or register
Callsign
Passwort

Schedule Details

Flight Number: DLH2683 (1)
Departure: Palermo Falcone-Borsellino Airport (LICJ) at 16:50
Arrival: Munich Airport (EDDM) at 18:55
Route: Lufthansa Passenger Schedule. Enter filed route here before submitting Pirep.

Weather Information
Getting current METAR information for LICJ 250950Z 21023KT CAVOK 31/18 Q1008
Getting current METAR information for EDDM 250950Z 27007KT 230V290 9999 -RA FEW011 SCT020 10/08 Q1003 NOSIG

Schedule Frequency

Route Map